createdAt,value
2022-12-29T00:00:11.286Z,60.29
2022-12-29T00:00:23.378Z,60.49
2022-12-29T00:00:37.964Z,60.16
2022-12-29T00:00:49.958Z,60.38
2022-12-29T00:01:02.836Z,60.35
2022-12-29T00:01:14.883Z,60.23
2022-12-29T00:01:26.894Z,60.11
2022-12-29T00:01:38.910Z,60.30
2022-12-29T00:01:51.006Z,60.17
2022-12-29T00:02:02.981Z,60.75
2022-12-29T00:02:15.445Z,60.81
2022-12-29T00:02:27.693Z,60.30
2022-12-29T00:02:39.955Z,60.17
2022-12-29T00:02:52.171Z,60.26
2022-12-29T00:03:04.267Z,59.93
2022-12-29T00:03:16.424Z,60.10
2022-12-29T00:03:29.959Z,59.93
2022-12-29T00:03:46.205Z,60.10
2022-12-29T00:03:58.251Z,60.16
2022-12-29T00:04:15.003Z,59.67
2022-12-29T00:04:27.408Z,59.70
2022-12-29T00:04:39.331Z,59.35
2022-12-29T00:04:51.849Z,59.28
2022-12-29T00:05:04.150Z,59.25
2022-12-29T00:05:16.243Z,59.04
2022-12-29T00:05:28.196Z,59.08
2022-12-29T00:05:40.132Z,59.16
2022-12-29T00:05:56.372Z,58.75
2022-12-29T00:06:08.463Z,59.06
2022-12-29T00:06:20.415Z,58.97
2022-12-29T00:06:33.094Z,58.72
2022-12-29T00:06:45.643Z,58.93
2022-12-29T00:06:57.954Z,58.95
2022-12-29T00:07:11.648Z,58.65
2022-12-29T00:07:26.235Z,58.85
2022-12-29T00:07:38.153Z,58.80
2022-12-29T00:07:50.089Z,58.58
2022-12-29T00:08:02.030Z,58.63
2022-12-29T00:08:13.957Z,58.40
2022-12-29T00:08:40.387Z,58.31
2022-12-29T00:08:52.953Z,58.60
2022-12-29T00:09:04.917Z,58.33
2022-12-29T00:09:17.517Z,58.42
2022-12-29T00:09:29.559Z,58.25
2022-12-29T00:09:41.511Z,58.16
2022-12-29T00:09:53.461Z,58.21
2022-12-29T00:10:06.032Z,58.13
2022-12-29T00:10:17.976Z,58.48
2022-12-29T00:10:29.856Z,58.34
2022-12-29T00:10:41.780Z,58.36
2022-12-29T00:10:55.047Z,58.14
2022-12-29T00:11:18.429Z,58.46
2022-12-29T00:11:30.309Z,58.56
2022-12-29T00:11:42.886Z,58.33
2022-12-29T00:11:54.787Z,58.59
2022-12-29T00:12:06.819Z,58.36
2022-12-29T00:12:18.729Z,58.32
2022-12-29T00:12:50.669Z,58.46
2022-12-29T00:13:20.966Z,57.98
2022-12-29T00:13:51.311Z,57.70
2022-12-29T00:14:25.869Z,58.33
2022-12-29T00:14:56.551Z,58.09
2022-12-29T00:15:27.479Z,57.90
2022-12-29T00:15:39.585Z,58.33
2022-12-29T00:15:51.662Z,58.02
2022-12-29T00:16:03.765Z,57.96
2022-12-29T00:16:15.767Z,57.62
2022-12-29T00:16:28.697Z,57.83
2022-12-29T00:16:45.501Z,57.61
2022-12-29T00:16:57.870Z,57.13
2022-12-29T00:17:10.001Z,57.25
2022-12-29T00:17:21.902Z,57.08
2022-12-29T00:17:33.847Z,57.18
2022-12-29T00:17:45.743Z,57.45
2022-12-29T00:17:57.660Z,57.80
2022-12-29T00:18:09.658Z,57.43
2022-12-29T00:18:21.558Z,57.69
2022-12-29T00:18:33.490Z,57.60
2022-12-29T00:18:45.974Z,57.41
2022-12-29T00:18:58.338Z,57.88
2022-12-29T00:19:32.326Z,57.83
2022-12-29T00:20:02.740Z,57.88
2022-12-29T00:20:33.136Z,57.63
2022-12-29T00:21:04.199Z,57.40
2022-12-29T00:21:37.175Z,57.43
2022-12-29T00:22:07.640Z,57.38
2022-12-29T00:22:38.562Z,56.91
2022-12-29T00:23:08.900Z,57.03
2022-12-29T00:23:39.719Z,57.11
2022-12-29T00:24:09.972Z,57.35
2022-12-29T00:24:22.828Z,57.33
2022-12-29T00:24:37.822Z,57.32
2022-12-29T00:24:55.797Z,56.93
2022-12-29T00:25:31.206Z,56.72
2022-12-29T00:26:01.638Z,56.29
2022-12-29T00:26:34.660Z,56.49
2022-12-29T00:27:07.597Z,56.20
2022-12-29T00:27:37.949Z,55.90
2022-12-29T00:28:08.317Z,56.17
2022-12-29T00:28:38.790Z,56.13
2022-12-29T00:29:10.303Z,55.91
2022-12-29T00:29:40.714Z,55.67
2022-12-29T00:30:13.277Z,55.88
2022-12-29T00:30:44.238Z,56.21
2022-12-29T00:31:19.469Z,56.31
2022-12-29T00:31:49.897Z,55.95
2022-12-29T00:32:20.397Z,55.87
2022-12-29T00:32:50.621Z,56.16
2022-12-29T00:33:38.110Z,55.57
2022-12-29T00:34:08.477Z,55.79
2022-12-29T00:34:41.978Z,56.04
2022-12-29T00:35:11.941Z,55.82
2022-12-29T00:35:34.643Z,55.91
2022-12-29T00:35:53.370Z,55.81
2022-12-29T00:36:11.575Z,55.88
2022-12-29T00:36:32.574Z,55.89
2022-12-29T00:36:45.553Z,55.85
2022-12-29T00:36:58.040Z,55.85
2022-12-29T00:37:10.255Z,56.16
2022-12-29T00:37:42.219Z,55.89
2022-12-29T00:38:15.055Z,56.04
2022-12-29T00:38:46.433Z,56.16
2022-12-29T00:39:27.871Z,56.17
2022-12-29T00:40:08.724Z,56.67
2022-12-29T00:40:39.460Z,56.21
2022-12-29T00:41:09.875Z,56.04
2022-12-29T00:41:40.304Z,55.86
2022-12-29T00:42:10.771Z,55.76
2022-12-29T00:42:41.130Z,56.65
2022-12-29T00:43:11.455Z,56.96
2022-12-29T00:43:41.715Z,56.92
2022-12-29T00:44:10.799Z,57.18
2022-12-29T00:44:22.738Z,57.22
2022-12-29T00:44:34.638Z,57.21
2022-12-29T00:44:46.534Z,57.07
2022-12-29T00:44:58.452Z,57.09
2022-12-29T00:45:10.480Z,57.26
2022-12-29T00:45:22.425Z,58.01
2022-12-29T00:45:34.319Z,58.12
2022-12-29T00:45:46.307Z,58.14
2022-12-29T00:45:58.281Z,58.35
2022-12-29T00:46:15.915Z,58.23
2022-12-29T00:46:35.546Z,57.68
2022-12-29T00:46:47.648Z,57.54
2022-12-29T00:47:04.134Z,57.64
2022-12-29T00:47:16.217Z,57.65
2022-12-29T00:47:30.251Z,57.52
2022-12-29T00:47:42.171Z,57.98
2022-12-29T00:47:54.043Z,58.18
2022-12-29T00:48:06.030Z,57.95
2022-12-29T00:48:39.045Z,58.12
2022-12-29T00:49:09.222Z,57.88
2022-12-29T00:49:34.095Z,57.85
2022-12-29T00:49:46.231Z,57.73
2022-12-29T00:49:58.190Z,57.86
2022-12-29T00:50:10.116Z,57.76
2022-12-29T00:50:22.009Z,58.14
2022-12-29T00:50:33.928Z,57.97
2022-12-29T00:50:45.923Z,57.97
2022-12-29T00:50:57.840Z,58.09
2022-12-29T00:51:09.837Z,58.45
2022-12-29T00:51:21.952Z,58.37
2022-12-29T00:51:34.036Z,58.45
2022-12-29T00:51:46.835Z,58.63
2022-12-29T00:52:02.077Z,58.27
2022-12-29T00:52:14.702Z,58.40
2022-12-29T00:52:26.609Z,57.96
2022-12-29T00:52:38.528Z,58.03
2022-12-29T00:52:50.457Z,58.37
2022-12-29T00:53:02.373Z,58.29
2022-12-29T00:53:14.253Z,58.57
2022-12-29T00:53:26.128Z,57.83
2022-12-29T00:53:38.043Z,57.62
2022-12-29T00:53:49.977Z,57.67
2022-12-29T00:54:01.861Z,57.31
2022-12-29T00:54:14.812Z,57.27
2022-12-29T00:54:28.161Z,57.17
2022-12-29T00:54:41.748Z,57.61
2022-12-29T00:54:53.664Z,57.48
2022-12-29T00:55:05.967Z,57.22
2022-12-29T00:55:17.856Z,57.17
2022-12-29T00:55:29.782Z,56.89
2022-12-29T00:55:41.709Z,56.91
2022-12-29T00:55:53.660Z,57.23
2022-12-29T00:56:05.688Z,57.21
2022-12-29T00:56:17.594Z,57.70
2022-12-29T00:56:30.112Z,57.56
2022-12-29T00:56:42.222Z,57.63
2022-12-29T00:56:54.375Z,57.67
2022-12-29T00:57:08.914Z,58.07
2022-12-29T00:57:20.826Z,58.17
2022-12-29T00:57:32.711Z,58.02
2022-12-29T00:57:44.705Z,57.87
2022-12-29T00:57:56.650Z,57.80
2022-12-29T00:58:08.615Z,57.72
2022-12-29T00:58:20.556Z,57.58
2022-12-29T00:58:32.555Z,57.52
2022-12-29T00:58:44.457Z,57.86
2022-12-29T00:58:56.595Z,58.15
2022-12-29T00:59:11.089Z,57.82
2022-12-29T00:59:27.604Z,57.89
2022-12-29T00:59:41.427Z,58.09
2022-12-29T00:59:53.346Z,58.18
2022-12-29T01:00:05.759Z,58.29
2022-12-29T01:00:17.644Z,57.82
2022-12-29T01:00:29.689Z,58.24
2022-12-29T01:00:41.644Z,58.18
2022-12-29T01:00:53.563Z,58.14
2022-12-29T01:01:08.208Z,58.35
2022-12-29T01:01:20.209Z,58.37
2022-12-29T01:01:33.292Z,58.46
2022-12-29T01:01:46.180Z,58.40
2022-12-29T01:01:58.639Z,58.64
2022-12-29T01:02:11.364Z,58.24
2022-12-29T01:02:23.513Z,58.43
2022-12-29T01:02:35.617Z,57.99
2022-12-29T01:02:47.675Z,58.10
2022-12-29T01:02:59.878Z,58.43
2022-12-29T01:03:15.063Z,58.32
2022-12-29T01:03:26.985Z,58.46
2022-12-29T01:03:39.421Z,58.91
2022-12-29T01:03:51.349Z,59.45
2022-12-29T01:04:04.756Z,60.10
2022-12-29T01:04:16.811Z,60.63
2022-12-29T01:04:30.532Z,60.52
2022-12-29T01:04:42.536Z,60.08
2022-12-29T01:04:54.423Z,60.54
2022-12-29T01:05:06.500Z,59.82
2022-12-29T01:05:19.121Z,59.89
2022-12-29T01:05:31.063Z,59.57
2022-12-29T01:05:43.059Z,59.18
2022-12-29T01:05:54.976Z,59.77
2022-12-29T01:06:09.382Z,59.75
2022-12-29T01:06:21.457Z,59.88
2022-12-29T01:06:34.656Z,59.81
2022-12-29T01:06:48.913Z,59.40
2022-12-29T01:07:00.876Z,59.57
2022-12-29T01:07:15.578Z,59.85
2022-12-29T01:07:27.511Z,60.12
2022-12-29T01:07:39.395Z,60.25
2022-12-29T01:07:51.343Z,60.40
2022-12-29T01:08:03.357Z,60.39
2022-12-29T01:08:15.274Z,60.20
2022-12-29T01:08:29.297Z,60.35
2022-12-29T01:08:41.242Z,60.25
2022-12-29T01:09:11.984Z,60.14
2022-12-29T01:09:42.219Z,60.75
2022-12-29T01:10:12.186Z,60.72
2022-12-29T01:10:24.155Z,60.35
2022-12-29T01:10:36.079Z,60.30
2022-12-29T01:10:58.135Z,60.36
2022-12-29T01:11:13.093Z,59.88
2022-12-29T01:11:25.050Z,59.94
2022-12-29T01:11:37.177Z,60.01
2022-12-29T01:11:49.421Z,59.92
2022-12-29T01:12:01.494Z,59.47
2022-12-29T01:12:13.625Z,59.67
2022-12-29T01:12:41.843Z,59.80
2022-12-29T01:12:53.866Z,59.84
2022-12-29T01:13:05.827Z,59.67
2022-12-29T01:13:17.727Z,59.72
2022-12-29T01:13:30.324Z,59.56
2022-12-29T01:13:43.409Z,59.20
2022-12-29T01:13:55.475Z,59.34
2022-12-29T01:14:07.715Z,58.85
2022-12-29T01:14:20.520Z,58.95
2022-12-29T01:14:32.685Z,58.75
2022-12-29T01:14:44.639Z,59.28
2022-12-29T01:14:56.531Z,58.96
2022-12-29T01:15:11.333Z,59.40
2022-12-29T01:15:23.364Z,59.55
2022-12-29T01:15:35.286Z,59.67
2022-12-29T01:15:51.989Z,59.47
2022-12-29T01:16:04.184Z,59.58
2022-12-29T01:16:16.229Z,59.79
2022-12-29T01:16:30.191Z,59.93
2022-12-29T01:16:42.168Z,59.93
2022-12-29T01:16:54.917Z,60.37
2022-12-29T01:17:07.138Z,61.01
2022-12-29T01:17:19.315Z,61.27
2022-12-29T01:17:31.234Z,61.83
2022-12-29T01:17:43.553Z,61.56
2022-12-29T01:17:55.587Z,61.78
2022-12-29T01:18:07.561Z,61.79
2022-12-29T01:18:20.673Z,62.43
2022-12-29T01:18:32.652Z,62.69
2022-12-29T01:18:44.609Z,62.44
2022-12-29T01:18:56.569Z,62.90
2022-12-29T01:19:08.802Z,63.10
2022-12-29T01:19:21.202Z,63.38
2022-12-29T01:19:33.427Z,63.39
2022-12-29T01:19:45.961Z,63.77
2022-12-29T01:19:57.862Z,64.33
2022-12-29T01:20:11.597Z,64.85
2022-12-29T01:20:23.554Z,65.20
2022-12-29T01:20:35.470Z,65.26
2022-12-29T01:20:47.473Z,65.67
2022-12-29T01:21:05.392Z,66.32
2022-12-29T01:21:17.281Z,66.91
2022-12-29T01:21:30.772Z,66.85
2022-12-29T01:21:42.969Z,67.07
2022-12-29T01:21:54.973Z,67.16
2022-12-29T01:22:06.915Z,66.92
2022-12-29T01:22:20.832Z,67.75
2022-12-29T01:22:32.768Z,68.07
2022-12-29T01:22:44.819Z,68.19
2022-12-29T01:22:56.733Z,67.95
2022-12-29T01:23:08.632Z,67.87
2022-12-29T01:23:20.523Z,67.63
2022-12-29T01:23:33.134Z,68.19
2022-12-29T01:23:45.021Z,68.61
2022-12-29T01:23:57.200Z,68.24
2022-12-29T01:24:09.185Z,68.22
2022-12-29T01:24:21.701Z,67.91
2022-12-29T01:24:33.636Z,68.38
2022-12-29T01:24:45.596Z,68.72
2022-12-29T01:24:57.579Z,68.80
2022-12-29T01:25:09.648Z,68.48
2022-12-29T01:25:21.630Z,68.76
2022-12-29T01:25:33.577Z,69.08
2022-12-29T01:25:45.672Z,68.97
2022-12-29T01:25:57.961Z,69.18
2022-12-29T01:26:14.284Z,69.34
2022-12-29T01:26:26.258Z,69.56
2022-12-29T01:26:38.189Z,69.73
2022-12-29T01:26:50.752Z,70.53
2022-12-29T01:27:02.684Z,70.90
2022-12-29T01:27:14.632Z,71.18
2022-12-29T01:27:26.885Z,71.23
2022-12-29T01:27:38.852Z,71.61
2022-12-29T01:27:50.777Z,71.54
2022-12-29T01:28:02.746Z,71.65
2022-12-29T01:28:15.079Z,71.56
2022-12-29T01:28:27.019Z,71.60
2022-12-29T01:28:42.479Z,71.60
2022-12-29T01:28:54.427Z,71.08
2022-12-29T01:29:06.397Z,70.87
2022-12-29T01:29:19.315Z,71.35
2022-12-29T01:29:31.331Z,70.49
2022-12-29T01:29:43.255Z,70.75
2022-12-29T01:29:55.319Z,70.20
2022-12-29T01:30:07.802Z,70.70
2022-12-29T01:30:19.727Z,70.87
2022-12-29T01:30:33.193Z,70.90
2022-12-29T01:30:45.108Z,71.66
2022-12-29T01:31:00.716Z,71.41
2022-12-29T01:31:14.989Z,71.46
2022-12-29T01:31:27.010Z,70.89
2022-12-29T01:31:39.143Z,71.24
2022-12-29T01:31:51.327Z,71.10
2022-12-29T01:32:03.406Z,71.32
2022-12-29T01:32:15.404Z,70.98
2022-12-29T01:32:27.336Z,71.26
2022-12-29T01:32:39.256Z,71.42
2022-12-29T01:32:51.188Z,71.21
2022-12-29T01:33:03.277Z,71.28
2022-12-29T01:33:15.779Z,71.20
2022-12-29T01:33:27.811Z,72.03
2022-12-29T01:33:40.553Z,72.71
2022-12-29T01:33:52.521Z,72.47
2022-12-29T01:34:05.338Z,72.96
2022-12-29T01:34:17.402Z,72.92
2022-12-29T01:34:30.168Z,72.74
2022-12-29T01:34:42.141Z,72.72
2022-12-29T01:34:54.051Z,72.87
2022-12-29T01:35:06.190Z,73.00
2022-12-29T01:35:18.112Z,72.84
2022-12-29T01:35:30.194Z,73.09
2022-12-29T01:35:42.149Z,73.22
2022-12-29T01:35:54.105Z,73.44
2022-12-29T01:36:12.856Z,73.91
2022-12-29T01:36:25.413Z,74.03
2022-12-29T01:36:37.357Z,73.98
2022-12-29T01:36:49.279Z,73.96
2022-12-29T01:37:01.181Z,73.47
2022-12-29T01:37:13.121Z,73.42
2022-12-29T01:37:26.526Z,72.99
2022-12-29T01:37:38.470Z,73.15
2022-12-29T01:37:50.390Z,72.81
2022-12-29T01:38:02.661Z,73.56
2022-12-29T01:38:14.615Z,73.84
2022-12-29T01:38:26.516Z,73.97
2022-12-29T01:38:39.163Z,74.11
2022-12-29T01:38:51.078Z,74.42
2022-12-29T01:39:03.125Z,75.17
2022-12-29T01:39:15.030Z,75.21
2022-12-29T01:39:28.182Z,75.54
2022-12-29T01:39:40.161Z,75.26
2022-12-29T01:39:52.066Z,75.02
2022-12-29T01:40:04.297Z,74.80
2022-12-29T01:40:16.335Z,74.90
2022-12-29T01:40:34.559Z,75.39
2022-12-29T01:40:47.222Z,75.29
2022-12-29T01:40:59.284Z,75.37
2022-12-29T01:41:13.727Z,75.42
2022-12-29T01:41:26.633Z,75.52
2022-12-29T01:41:38.606Z,74.89
2022-12-29T01:41:50.497Z,74.94
2022-12-29T01:42:02.567Z,74.66
2022-12-29T01:42:19.993Z,74.71
2022-12-29T01:42:31.950Z,73.90
2022-12-29T01:42:43.932Z,74.14
2022-12-29T01:42:55.915Z,73.89
2022-12-29T01:43:12.375Z,73.74
2022-12-29T01:43:43.662Z,73.27
2022-12-29T01:43:58.429Z,73.28
2022-12-29T01:45:01.254Z,73.48
2022-12-29T01:45:17.626Z,73.22
2022-12-29T01:45:30.275Z,73.53
2022-12-29T01:45:50.200Z,73.57
2022-12-29T01:46:02.277Z,73.06
2022-12-29T01:46:32.702Z,73.25
2022-12-29T01:46:49.222Z,72.06
2022-12-29T01:47:01.184Z,71.96
2022-12-29T01:47:19.684Z,72.33
2022-12-29T01:47:57.673Z,72.01
2022-12-29T01:48:11.204Z,71.93
2022-12-29T01:48:23.186Z,72.47
2022-12-29T01:48:35.390Z,72.30
2022-12-29T01:48:49.920Z,72.04
2022-12-29T01:49:10.824Z,71.88
2022-12-29T01:49:25.999Z,72.11
2022-12-29T01:49:38.463Z,72.23
2022-12-29T01:49:53.851Z,71.58
2022-12-29T01:50:08.944Z,71.43
2022-12-29T01:50:28.864Z,71.50
2022-12-29T01:50:54.058Z,71.52
2022-12-29T01:51:06.106Z,71.58
2022-12-29T01:51:18.139Z,71.38
2022-12-29T01:51:32.590Z,71.24
2022-12-29T01:52:02.687Z,70.96
2022-12-29T01:52:14.892Z,71.07
2022-12-29T01:52:30.741Z,71.13
2022-12-29T01:52:51.792Z,70.79
2022-12-29T01:53:17.036Z,71.45
2022-12-29T01:53:35.598Z,71.12
2022-12-29T01:53:47.542Z,71.55
2022-12-29T01:54:02.831Z,71.60
2022-12-29T01:54:22.461Z,71.12
2022-12-29T01:54:48.007Z,70.74
2022-12-29T01:55:02.526Z,70.94
2022-12-29T01:55:15.405Z,70.60
2022-12-29T01:55:32.351Z,70.96
2022-12-29T01:55:50.892Z,70.72
2022-12-29T01:56:07.907Z,70.43
2022-12-29T01:56:21.425Z,70.70
2022-12-29T01:56:34.006Z,70.54
2022-12-29T01:56:46.891Z,70.15
2022-12-29T01:57:02.737Z,70.13
2022-12-29T01:57:20.367Z,69.88
2022-12-29T01:57:40.488Z,70.08
2022-12-29T01:57:56.011Z,69.83
2022-12-29T01:58:08.494Z,69.83
2022-12-29T01:58:23.898Z,69.37
2022-12-29T01:58:40.693Z,69.48
2022-12-29T01:59:00.994Z,69.63
2022-12-29T01:59:17.937Z,69.61
2022-12-29T01:59:39.732Z,69.74
2022-12-29T02:00:02.628Z,68.97
2022-12-29T02:00:15.953Z,69.20
2022-12-29T02:00:29.792Z,69.21
2022-12-29T02:00:41.862Z,69.22
2022-12-29T02:00:53.931Z,69.22
2022-12-29T02:01:06.734Z,69.31
2022-12-29T02:01:21.125Z,69.22
2022-12-29T02:01:33.658Z,68.99
2022-12-29T02:01:46.316Z,68.77
2022-12-29T02:01:58.840Z,69.25
2022-12-29T02:02:11.729Z,68.98
2022-12-29T02:02:25.454Z,68.73
2022-12-29T02:02:38.126Z,68.83
2022-12-29T02:02:54.780Z,68.68
2022-12-29T02:03:08.625Z,68.55
2022-12-29T02:03:23.883Z,68.37
2022-12-29T02:03:37.394Z,68.48
2022-12-29T02:03:50.954Z,68.60
2022-12-29T02:04:03.137Z,68.64
2022-12-29T02:04:15.542Z,68.60
2022-12-29T02:04:31.723Z,68.59
2022-12-29T02:04:47.433Z,68.53
2022-12-29T02:05:04.946Z,68.83
2022-12-29T02:05:43.078Z,69.03
2022-12-29T02:06:03.601Z,69.41
2022-12-29T02:06:16.312Z,69.40
2022-12-29T02:06:45.298Z,69.11
2022-12-29T02:07:02.683Z,69.40
2022-12-29T02:07:27.237Z,69.85
2022-12-29T02:07:39.978Z,69.44
2022-12-29T02:07:53.922Z,69.40
2022-12-29T02:08:06.183Z,68.97
2022-12-29T02:08:19.328Z,68.65
2022-12-29T02:08:31.431Z,68.97
2022-12-29T02:08:47.012Z,68.82
2022-12-29T02:09:01.640Z,68.86
2022-12-29T02:09:13.545Z,68.94
2022-12-29T02:09:26.823Z,68.61
2022-12-29T02:09:38.884Z,68.34
2022-12-29T02:09:52.712Z,68.28
2022-12-29T02:10:05.086Z,68.13
2022-12-29T02:10:17.216Z,67.75
2022-12-29T02:10:32.935Z,67.81
2022-12-29T02:10:46.217Z,67.42
2022-12-29T02:11:00.307Z,67.67
2022-12-29T02:11:13.510Z,67.63
2022-12-29T02:11:28.006Z,67.76
2022-12-29T02:11:40.000Z,67.56
2022-12-29T02:11:52.856Z,67.08
2022-12-29T02:12:04.944Z,67.05
2022-12-29T02:12:22.120Z,67.27
2022-12-29T02:12:34.750Z,67.79
2022-12-29T02:12:47.776Z,68.23
2022-12-29T02:12:59.664Z,68.16
2022-12-29T02:13:11.589Z,68.13
2022-12-29T02:13:31.357Z,68.19
2022-12-29T02:13:43.308Z,68.18
2022-12-29T02:13:55.349Z,67.98
2022-12-29T02:14:14.585Z,68.32
2022-12-29T02:14:26.537Z,67.35
2022-12-29T02:14:38.494Z,67.47
2022-12-29T02:14:55.717Z,67.81
2022-12-29T02:15:08.463Z,67.68
2022-12-29T02:15:32.376Z,67.31
2022-12-29T02:16:26.050Z,67.54
2022-12-29T02:16:46.832Z,67.25
2022-12-29T02:17:07.574Z,67.15
2022-12-29T02:17:31.188Z,66.92
2022-12-29T02:17:58.388Z,66.81
2022-12-29T02:18:33.538Z,66.62
2022-12-29T02:18:48.237Z,66.55
2022-12-29T02:19:12.197Z,66.49
2022-12-29T02:20:02.374Z,66.15
2022-12-29T02:20:47.707Z,66.56
2022-12-29T02:21:20.994Z,66.86
2022-12-29T02:21:41.591Z,66.96
2022-12-29T02:22:18.391Z,66.76
2022-12-29T02:22:43.294Z,66.92
2022-12-29T02:23:13.513Z,66.81
2022-12-29T02:23:58.580Z,67.19
2022-12-29T02:24:34.930Z,66.84
2022-12-29T02:24:58.577Z,66.89
2022-12-29T02:25:40.327Z,66.96
2022-12-29T02:26:25.269Z,66.70
2022-12-29T02:27:04.852Z,66.26
2022-12-29T02:27:44.422Z,66.45
2022-12-29T02:28:11.439Z,65.91
2022-12-29T02:28:29.229Z,66.01
2022-12-29T02:28:51.075Z,66.11
2022-12-29T02:29:33.722Z,65.83
2022-12-29T02:30:19.203Z,65.58
2022-12-29T02:30:55.563Z,65.36
2022-12-29T02:31:42.593Z,65.39
2022-12-29T02:32:05.434Z,65.19
2022-12-29T02:32:36.340Z,65.03
2022-12-29T02:33:09.484Z,65.16
2022-12-29T02:33:36.507Z,65.20
2022-12-29T02:34:23.128Z,65.26
2022-12-29T02:34:38.080Z,65.13
2022-12-29T02:35:01.954Z,65.42
2022-12-29T02:35:34.986Z,64.84
2022-12-29T02:36:12.947Z,65.09
2022-12-29T02:36:30.832Z,64.69
2022-12-29T02:36:45.795Z,64.78
2022-12-29T02:37:04.506Z,64.49
2022-12-29T02:37:36.336Z,64.59
2022-12-29T02:38:03.780Z,63.95
2022-12-29T02:38:31.569Z,63.99
2022-12-29T02:39:18.692Z,63.84
2022-12-29T02:39:44.203Z,63.86
2022-12-29T02:40:02.147Z,63.58
2022-12-29T02:40:16.365Z,63.86
2022-12-29T02:40:48.621Z,63.20
2022-12-29T02:41:17.072Z,63.64
2022-12-29T02:41:54.815Z,63.25
2022-12-29T02:42:17.826Z,62.93
2022-12-29T02:42:35.850Z,63.05
2022-12-29T02:43:12.225Z,61.95
2022-12-29T02:43:34.029Z,62.18
2022-12-29T02:44:13.450Z,61.69
2022-12-29T02:44:47.520Z,61.21
2022-12-29T02:45:13.605Z,61.16
2022-12-29T02:45:32.356Z,61.62
2022-12-29T02:45:46.784Z,61.48
2022-12-29T02:46:12.075Z,61.34
2022-12-29T02:46:46.963Z,61.08
2022-12-29T02:47:06.184Z,61.06
2022-12-29T02:47:54.874Z,61.78
2022-12-29T02:48:13.289Z,61.27
2022-12-29T02:48:46.607Z,61.03
2022-12-29T02:49:16.108Z,60.62
2022-12-29T02:49:46.693Z,60.67
2022-12-29T02:50:16.334Z,60.03
2022-12-29T02:50:45.216Z,61.12
2022-12-29T02:51:04.387Z,60.99
2022-12-29T02:51:24.907Z,60.58
2022-12-29T02:51:58.221Z,60.56
2022-12-29T02:52:19.040Z,60.47
2022-12-29T02:52:36.961Z,60.14
2022-12-29T02:53:11.038Z,60.01
2022-12-29T02:53:44.912Z,60.72
2022-12-29T02:54:16.243Z,60.53
2022-12-29T02:54:44.512Z,60.43
2022-12-29T02:54:56.455Z,60.48
2022-12-29T02:55:08.520Z,60.59
2022-12-29T02:55:20.598Z,60.55
2022-12-29T02:55:32.527Z,60.61
2022-12-29T02:55:51.012Z,60.89
2022-12-29T02:56:06.107Z,60.81
2022-12-29T02:56:18.526Z,60.79
2022-12-29T02:56:31.076Z,60.54
2022-12-29T02:56:46.139Z,60.85
2022-12-29T02:56:58.166Z,60.44
2022-12-29T02:57:23.904Z,60.53
2022-12-29T02:57:36.606Z,60.51
2022-12-29T02:57:48.634Z,60.67
2022-12-29T02:58:09.504Z,60.53
2022-12-29T02:58:24.057Z,60.16
2022-12-29T02:58:36.026Z,60.47
2022-12-29T02:58:48.332Z,60.39
2022-12-29T02:59:00.353Z,60.55
2022-12-29T02:59:13.297Z,60.47
2022-12-29T02:59:26.405Z,60.38
2022-12-29T02:59:38.439Z,60.46
2022-12-29T02:59:56.177Z,60.45
2022-12-29T03:00:08.684Z,60.33
2022-12-29T03:00:20.965Z,60.48
2022-12-29T03:00:33.402Z,60.60
2022-12-29T03:01:03.182Z,60.67
2022-12-29T03:01:24.811Z,60.73
2022-12-29T03:02:17.886Z,60.95
2022-12-29T03:02:48.153Z,60.60
2022-12-29T03:03:15.143Z,60.64
2022-12-29T03:03:45.373Z,60.40
2022-12-29T03:04:17.037Z,60.58
2022-12-29T03:05:02.210Z,60.65
2022-12-29T03:05:32.467Z,60.62
2022-12-29T03:05:58.820Z,60.44
2022-12-29T03:06:16.957Z,60.49
2022-12-29T03:06:49.790Z,60.23
2022-12-29T03:07:21.942Z,60.60
2022-12-29T03:07:50.312Z,60.55
2022-12-29T03:08:18.491Z,60.84
2022-12-29T03:08:39.417Z,60.81
2022-12-29T03:09:04.219Z,60.90
2022-12-29T03:09:37.542Z,60.66
2022-12-29T03:10:26.832Z,60.52
2022-12-29T03:11:02.353Z,60.69
2022-12-29T03:11:33.505Z,60.15
2022-12-29T03:12:09.377Z,60.63
2022-12-29T03:12:52.825Z,60.36
2022-12-29T03:13:35.832Z,60.70
2022-12-29T03:14:15.237Z,61.05
2022-12-29T03:15:14.765Z,62.39
2022-12-29T03:16:00.750Z,62.67
2022-12-29T03:16:25.097Z,62.13
2022-12-29T03:16:58.448Z,62.70
2022-12-29T03:17:25.054Z,62.45
2022-12-29T03:17:42.779Z,62.66
2022-12-29T03:18:11.274Z,62.70
2022-12-29T03:18:31.440Z,62.74
2022-12-29T03:18:58.781Z,62.44
2022-12-29T03:19:27.092Z,62.76
2022-12-29T03:19:46.661Z,63.19
2022-12-29T03:20:05.626Z,63.74
2022-12-29T03:20:24.562Z,64.26
2022-12-29T03:20:55.423Z,64.65
2022-12-29T03:21:20.861Z,64.90
2022-12-29T03:21:57.111Z,65.04
2022-12-29T03:22:28.116Z,65.10
2022-12-29T03:22:48.335Z,65.19
2022-12-29T03:23:03.388Z,65.04
2022-12-29T03:23:15.773Z,64.95
2022-12-29T03:23:29.837Z,64.88
2022-12-29T03:23:48.527Z,64.25
2022-12-29T03:24:00.571Z,64.13
2022-12-29T03:24:18.560Z,64.04
2022-12-29T03:24:35.633Z,64.08
2022-12-29T03:24:52.741Z,64.06
2022-12-29T03:25:26.881Z,64.34
2022-12-29T03:25:45.196Z,63.95
2022-12-29T03:26:00.475Z,63.75
2022-12-29T03:26:15.344Z,63.97
2022-12-29T03:26:27.387Z,64.10
2022-12-29T03:26:42.059Z,63.90
2022-12-29T03:26:57.712Z,63.10
2022-12-29T03:27:13.787Z,63.07
2022-12-29T03:27:32.833Z,62.92
2022-12-29T03:27:58.221Z,63.48
2022-12-29T03:28:19.660Z,63.34
2022-12-29T03:28:37.372Z,63.46
2022-12-29T03:28:55.312Z,63.21
2022-12-29T03:29:09.611Z,63.43
2022-12-29T03:29:21.730Z,63.07
2022-12-29T03:29:40.491Z,62.95
2022-12-29T03:30:00.286Z,63.09
2022-12-29T03:30:12.900Z,62.96
2022-12-29T03:30:27.069Z,63.37
2022-12-29T03:30:41.542Z,62.98
2022-12-29T03:30:54.090Z,63.22
2022-12-29T03:31:08.910Z,63.10
2022-12-29T03:31:24.492Z,63.13
2022-12-29T03:31:38.911Z,62.67
2022-12-29T03:31:54.520Z,62.92
2022-12-29T03:32:09.367Z,62.84
2022-12-29T03:32:24.758Z,62.87
2022-12-29T03:32:58.311Z,62.29
2022-12-29T03:33:13.961Z,62.05
2022-12-29T03:33:30.919Z,61.94
2022-12-29T03:33:45.306Z,61.90
2022-12-29T03:33:58.015Z,61.82
2022-12-29T03:34:12.550Z,61.89
2022-12-29T03:34:25.920Z,62.28
2022-12-29T03:34:39.200Z,62.29
2022-12-29T03:34:51.977Z,62.19
2022-12-29T03:35:06.431Z,61.66
2022-12-29T03:35:21.807Z,61.74
2022-12-29T03:35:38.320Z,62.21
2022-12-29T03:35:55.125Z,62.27
2022-12-29T03:36:10.911Z,61.44
2022-12-29T03:36:34.966Z,61.85
2022-12-29T03:36:53.467Z,61.78
2022-12-29T03:37:17.657Z,61.77
2022-12-29T03:37:36.153Z,61.96
2022-12-29T03:37:59.259Z,62.08
2022-12-29T03:38:20.084Z,62.58
2022-12-29T03:38:53.964Z,62.54
2022-12-29T03:39:13.245Z,62.19
2022-12-29T03:39:26.351Z,62.14
2022-12-29T03:39:38.736Z,62.23
2022-12-29T03:39:50.767Z,62.24
2022-12-29T03:40:03.229Z,62.35
2022-12-29T03:40:15.235Z,62.36
2022-12-29T03:40:29.691Z,62.35
2022-12-29T03:40:46.788Z,62.39
2022-12-29T03:41:03.343Z,62.62
2022-12-29T03:41:21.379Z,62.32
2022-12-29T03:41:35.282Z,62.60
2022-12-29T03:41:50.038Z,62.08
2022-12-29T03:42:06.960Z,62.24
2022-12-29T03:42:22.617Z,62.34
2022-12-29T03:42:37.449Z,62.10
2022-12-29T03:42:49.537Z,62.15
2022-12-29T03:43:04.041Z,62.35
2022-12-29T03:43:16.667Z,62.00
2022-12-29T03:43:30.755Z,61.96
2022-12-29T03:43:42.705Z,62.01
2022-12-29T03:43:54.624Z,62.22
2022-12-29T03:44:07.779Z,62.19
2022-12-29T03:44:19.759Z,62.27
2022-12-29T03:44:37.252Z,61.95
2022-12-29T03:44:49.227Z,62.40
2022-12-29T03:45:01.269Z,62.00
2022-12-29T03:45:16.273Z,62.54
2022-12-29T03:45:30.339Z,62.19
2022-12-29T03:45:44.584Z,62.06
2022-12-29T03:45:56.650Z,62.15
2022-12-29T03:46:08.745Z,61.98
2022-12-29T03:46:21.017Z,62.03
2022-12-29T03:46:33.133Z,62.18
2022-12-29T03:46:45.257Z,62.31
2022-12-29T03:46:57.329Z,62.33
2022-12-29T03:47:11.559Z,62.44
2022-12-29T03:47:24.611Z,62.28
2022-12-29T03:47:36.618Z,61.86
2022-12-29T03:47:48.701Z,62.24
2022-12-29T03:48:00.710Z,62.25
2022-12-29T03:48:12.812Z,62.13
2022-12-29T03:48:24.771Z,62.04
2022-12-29T03:48:36.779Z,62.10
2022-12-29T03:48:48.675Z,62.19
2022-12-29T03:49:00.666Z,62.28
2022-12-29T03:49:12.644Z,61.79
2022-12-29T03:49:24.645Z,61.85
2022-12-29T03:49:36.676Z,61.87